createdAt,value
2018-04-08T00:00:43.485Z,15.34
2018-04-08T00:03:09.083Z,15.38
2018-04-08T00:05:34.640Z,15.39
2018-04-08T00:08:01.007Z,15.20
2018-04-08T00:10:26.565Z,15.23
2018-04-08T00:12:52.127Z,15.18
2018-04-08T00:15:18.068Z,15.53
2018-04-08T00:17:43.611Z,15.36
2018-04-08T00:20:09.161Z,15.29
2018-04-08T00:22:34.960Z,15.34
2018-04-08T00:25:00.498Z,15.27
2018-04-08T00:27:26.039Z,15.30
2018-04-08T00:29:51.830Z,15.24
2018-04-08T00:32:17.433Z,15.26
2018-04-08T00:34:42.972Z,15.26
2018-04-08T00:37:08.702Z,15.38
2018-04-08T00:39:34.244Z,15.27
2018-04-08T00:41:59.818Z,15.26
2018-04-08T00:44:25.672Z,15.23
2018-04-08T00:46:51.234Z,15.43
2018-04-08T00:49:16.874Z,15.22
2018-04-08T00:51:42.713Z,15.12
2018-04-08T00:54:30.043Z,15.08
2018-04-08T00:56:55.935Z,15.08
2018-04-08T00:59:21.488Z,15.06
2018-04-08T01:01:47.051Z,14.96
2018-04-08T01:04:12.810Z,15.09
2018-04-08T01:06:38.344Z,14.79
2018-04-08T01:09:04.779Z,14.67
2018-04-08T01:11:30.511Z,14.68
2018-04-08T01:13:56.052Z,14.62
2018-04-08T01:16:21.608Z,14.61
2018-04-08T01:18:47.490Z,14.60
2018-04-08T01:21:13.073Z,14.66
2018-04-08T01:23:38.610Z,14.13
2018-04-08T01:26:04.370Z,14.48
2018-04-08T01:28:29.943Z,14.47
2018-04-08T01:30:55.551Z,14.31
2018-04-08T01:33:21.369Z,14.19
2018-04-08T01:35:46.947Z,14.12
2018-04-08T01:38:12.502Z,14.19
2018-04-08T01:40:38.228Z,14.10
2018-04-08T01:43:03.771Z,14.13
2018-04-08T01:45:29.382Z,13.98
2018-04-08T01:47:55.064Z,13.92
2018-04-08T01:50:20.610Z,13.67
2018-04-08T01:52:46.222Z,13.67
2018-04-08T01:55:12.040Z,13.58
2018-04-08T01:57:37.591Z,13.65
2018-04-08T02:00:03.128Z,13.57
2018-04-08T02:02:28.858Z,13.57
2018-04-08T02:04:54.412Z,13.67
2018-04-08T02:07:19.949Z,13.57
2018-04-08T02:09:45.749Z,13.52
2018-04-08T02:12:11.790Z,13.78
2018-04-08T02:14:37.365Z,13.48
2018-04-08T02:17:03.170Z,13.59
2018-04-08T02:19:28.750Z,13.46
2018-04-08T02:21:54.326Z,13.22
2018-04-08T02:24:20.114Z,13.07
2018-04-08T02:26:45.663Z,12.82
2018-04-08T02:29:11.198Z,12.59
2018-04-08T02:31:37.292Z,12.67
2018-04-08T02:34:02.830Z,12.57
2018-04-08T02:36:28.389Z,12.47
2018-04-08T02:38:54.171Z,12.32
2018-04-08T02:41:19.727Z,12.24
2018-04-08T02:43:45.270Z,12.20
2018-04-08T02:46:11.147Z,12.08
2018-04-08T02:48:36.706Z,12.04
2018-04-08T02:51:02.252Z,12.14
2018-04-08T02:53:28.034Z,11.86
2018-04-08T02:55:53.570Z,11.93
2018-04-08T02:58:19.146Z,11.87
2018-04-08T03:00:45.079Z,11.86
2018-04-08T03:03:10.619Z,11.80
2018-04-08T03:05:36.206Z,11.78
2018-04-08T03:08:01.907Z,11.67
2018-04-08T03:10:27.452Z,11.86
2018-04-08T03:12:53.019Z,11.46
2018-04-08T03:15:19.693Z,11.46
2018-04-08T03:17:45.298Z,11.41
2018-04-08T03:20:10.847Z,11.63
2018-04-08T03:22:36.671Z,11.60
2018-04-08T03:25:02.220Z,11.46
2018-04-08T03:27:27.835Z,11.44
2018-04-08T03:29:53.566Z,11.56
2018-04-08T03:32:19.109Z,11.46
2018-04-08T03:34:44.664Z,11.57
2018-04-08T03:37:10.521Z,11.48
2018-04-08T03:39:36.106Z,11.50
2018-04-08T03:42:01.671Z,11.44
2018-04-08T03:44:27.515Z,11.27
2018-04-08T03:46:53.051Z,11.03
2018-04-08T03:49:18.609Z,11.26
2018-04-08T03:51:44.400Z,11.16
2018-04-08T03:54:09.937Z,11.33
2018-04-08T03:56:35.503Z,11.44
2018-04-08T03:59:01.357Z,11.50
2018-04-08T04:01:26.985Z,11.56
2018-04-08T04:03:52.558Z,11.34
2018-04-08T04:06:18.357Z,11.05
2018-04-08T04:08:43.941Z,11.25
2018-04-08T04:11:09.515Z,11.36
2018-04-08T04:13:35.344Z,11.73
2018-04-08T04:16:00.901Z,11.59
2018-04-08T04:19:04.914Z,11.71
2018-04-08T04:22:08.053Z,11.52
2018-04-08T04:25:10.827Z,11.32
2018-04-08T04:27:36.373Z,11.20
2018-04-08T04:30:01.915Z,10.84
2018-04-08T04:32:27.686Z,10.78
2018-04-08T04:34:53.262Z,10.78
2018-04-08T04:37:18.821Z,10.78
2018-04-08T04:39:45.124Z,11.06
2018-04-08T04:42:10.689Z,11.47
2018-04-08T04:44:36.254Z,11.31
2018-04-08T04:47:02.036Z,11.06
2018-04-08T04:49:27.649Z,11.17
2018-04-08T04:51:53.241Z,11.37
2018-04-08T04:54:19.011Z,11.30
2018-04-08T04:56:44.591Z,11.13
2018-04-08T04:59:10.137Z,11.12
2018-04-08T05:01:35.998Z,10.75
2018-04-08T05:04:01.552Z,10.67
2018-04-08T05:06:27.077Z,10.57
2018-04-08T05:08:52.782Z,10.39
2018-04-08T05:11:18.371Z,10.39
2018-04-08T05:13:43.929Z,10.51
2018-04-08T05:16:09.751Z,10.63
2018-04-08T05:18:35.417Z,10.81
2018-04-08T05:21:01.711Z,11.12
2018-04-08T05:23:27.488Z,10.87
2018-04-08T05:25:53.035Z,10.83
2018-04-08T05:28:18.614Z,10.89
2018-04-08T05:30:44.372Z,10.90
2018-04-08T05:33:09.952Z,11.01
2018-04-08T05:35:35.516Z,10.98
2018-04-08T05:38:01.434Z,11.14
2018-04-08T05:40:28.061Z,11.24
2018-04-08T05:42:53.606Z,11.17
2018-04-08T05:45:19.441Z,11.44
2018-04-08T05:47:45.064Z,11.38
2018-04-08T05:50:10.828Z,11.49
2018-04-08T05:52:36.606Z,11.39
2018-04-08T05:55:02.143Z,11.20
2018-04-08T05:57:27.694Z,11.16
2018-04-08T05:59:53.476Z,11.17
2018-04-08T06:02:19.022Z,11.28
2018-04-08T06:04:44.595Z,11.19
2018-04-08T06:07:10.388Z,11.17
2018-04-08T06:09:35.947Z,11.06
2018-04-08T06:12:01.498Z,11.14
2018-04-08T06:14:27.240Z,10.92
2018-04-08T06:16:52.854Z,11.02
2018-04-08T06:19:18.419Z,11.05
2018-04-08T06:21:44.868Z,11.02
2018-04-08T06:24:11.013Z,11.03
2018-04-08T06:26:36.571Z,10.95
2018-04-08T06:29:02.314Z,11.01
2018-04-08T06:31:27.857Z,10.94
2018-04-08T06:33:53.398Z,11.04
2018-04-08T06:36:19.309Z,11.05
2018-04-08T06:38:44.842Z,11.07
2018-04-08T06:41:10.401Z,11.26
2018-04-08T06:43:36.200Z,11.26
2018-04-08T06:46:01.732Z,11.45
2018-04-08T06:48:27.277Z,11.48
2018-04-08T06:50:53.124Z,11.46
2018-04-08T06:53:18.695Z,11.73
2018-04-08T06:55:44.310Z,11.48
2018-04-08T06:58:10.231Z,11.46
2018-04-08T07:00:35.784Z,11.67
2018-04-08T07:03:01.342Z,11.84
2018-04-08T07:05:27.374Z,11.87
2018-04-08T07:07:52.947Z,11.73
2018-04-08T07:10:18.496Z,11.85
2018-04-08T07:12:44.312Z,12.05
2018-04-08T07:15:09.925Z,12.25
2018-04-08T07:17:35.473Z,12.46
2018-04-08T07:20:01.704Z,12.48
2018-04-08T07:22:27.246Z,12.57
2018-04-08T07:24:52.844Z,12.83
2018-04-08T07:27:18.987Z,12.83
2018-04-08T07:29:44.590Z,12.91
2018-04-08T07:32:10.151Z,13.12
2018-04-08T07:34:35.978Z,13.36
2018-04-08T07:37:01.524Z,13.46
2018-04-08T07:39:27.100Z,13.83
2018-04-08T07:41:52.850Z,13.83
2018-04-08T07:44:18.415Z,13.90
2018-04-08T07:46:43.970Z,14.27
2018-04-08T07:49:09.674Z,14.36
2018-04-08T07:51:35.220Z,14.50
2018-04-08T07:54:00.921Z,14.65
2018-04-08T07:56:26.868Z,14.62
2018-04-08T07:58:52.442Z,14.89
2018-04-08T08:01:18.024Z,15.13
2018-04-08T08:03:43.888Z,14.86
2018-04-08T08:06:09.476Z,15.14
2018-04-08T08:08:35.024Z,15.03
2018-04-08T08:11:00.935Z,15.08
2018-04-08T08:13:26.479Z,15.16
2018-04-08T08:15:52.044Z,15.38
2018-04-08T08:18:17.804Z,15.27
2018-04-08T08:20:43.384Z,15.48
2018-04-08T08:23:09.039Z,15.50
2018-04-08T08:25:35.265Z,15.59
2018-04-08T08:28:01.274Z,15.37
2018-04-08T08:30:27.085Z,15.79
2018-04-08T08:32:52.959Z,16.04
2018-04-08T08:35:18.728Z,16.09
2018-04-08T08:37:44.465Z,16.26
2018-04-08T08:40:10.236Z,16.36
2018-04-08T08:42:35.804Z,16.47
2018-04-08T08:45:01.416Z,16.66
2018-04-08T08:47:27.188Z,16.69
2018-04-08T08:49:52.771Z,16.53
2018-04-08T08:52:18.386Z,16.69
2018-04-08T08:54:44.411Z,16.76
2018-04-08T08:57:09.998Z,17.12
2018-04-08T08:59:35.601Z,17.29
2018-04-08T09:02:01.380Z,17.36
2018-04-08T09:04:26.949Z,17.29
2018-04-08T09:06:52.508Z,17.31
2018-04-08T09:09:18.325Z,17.40
2018-04-08T09:11:43.886Z,17.29
2018-04-08T09:14:09.427Z,17.50
2018-04-08T09:16:35.283Z,17.83
2018-04-08T09:19:00.815Z,17.89
2018-04-08T09:21:44.686Z,17.71
2018-04-08T09:26:01.284Z,18.14
2018-04-08T09:28:27.508Z,19.09
2018-04-08T09:30:53.319Z,18.83
2018-04-08T09:33:18.941Z,18.83
2018-04-08T09:35:44.682Z,18.49
2018-04-08T09:38:10.218Z,18.47
2018-04-08T09:40:35.770Z,18.48
2018-04-08T09:43:01.546Z,18.58
2018-04-08T09:45:27.090Z,18.52
2018-04-08T09:47:52.681Z,18.33
2018-04-08T09:50:18.557Z,18.58
2018-04-08T09:52:44.097Z,18.82
2018-04-08T09:55:09.740Z,18.98
2018-04-08T09:57:41.134Z,19.26
2018-04-08T10:00:06.735Z,19.38
2018-04-08T10:02:32.285Z,19.31
2018-04-08T10:04:58.037Z,19.27
2018-04-08T10:07:23.678Z,19.29
2018-04-08T10:09:49.248Z,19.21
2018-04-08T10:12:15.215Z,19.26
2018-04-08T10:14:41.171Z,19.38
2018-04-08T10:17:06.790Z,19.52
2018-04-08T10:19:33.577Z,19.90
2018-04-08T10:21:59.096Z,19.86
2018-04-08T10:24:24.637Z,20.07
2018-04-08T10:26:50.495Z,20.15
2018-04-08T10:29:16.323Z,20.27
2018-04-08T10:31:42.033Z,20.11
2018-04-08T10:34:07.740Z,20.11
2018-04-08T10:36:33.301Z,20.38
2018-04-08T10:38:58.851Z,20.46
2018-04-08T10:41:24.593Z,20.53
2018-04-08T10:43:50.205Z,20.49
2018-04-08T10:46:15.807Z,20.83
2018-04-08T10:48:41.780Z,20.84
2018-04-08T10:51:07.453Z,20.82
2018-04-08T10:53:33.007Z,21.06
2018-04-08T10:55:58.859Z,21.11
2018-04-08T10:58:24.468Z,21.10
2018-04-08T11:00:50.022Z,21.25
2018-04-08T11:03:15.951Z,21.47
2018-04-08T11:05:41.509Z,21.26
2018-04-08T11:08:07.073Z,21.53
2018-04-08T11:10:32.828Z,21.59
2018-04-08T11:12:58.377Z,21.72
2018-04-08T11:15:23.936Z,21.79
2018-04-08T11:17:49.766Z,21.81
2018-04-08T11:20:15.308Z,21.95
2018-04-08T11:22:40.859Z,22.09
2018-04-08T11:25:06.597Z,22.25
2018-04-08T11:27:32.201Z,22.51
2018-04-08T11:29:57.819Z,22.46
2018-04-08T11:32:23.723Z,22.43
2018-04-08T11:34:49.458Z,22.57
2018-04-08T11:37:15.007Z,22.79
2018-04-08T11:39:40.721Z,22.73
2018-04-08T11:42:06.398Z,22.75
2018-04-08T11:44:31.952Z,22.96
2018-04-08T11:46:57.669Z,23.03
2018-04-08T11:49:23.220Z,23.15
2018-04-08T11:51:48.762Z,23.26
2018-04-08T11:54:14.474Z,23.05
2018-04-08T11:56:40.076Z,23.04
2018-04-08T11:59:05.652Z,23.30
2018-04-08T12:01:31.325Z,23.21
2018-04-08T12:03:56.862Z,23.49
2018-04-08T12:06:22.408Z,23.62
2018-04-08T12:08:48.227Z,23.61
2018-04-08T12:11:13.779Z,23.83
2018-04-08T12:13:39.338Z,23.47
2018-04-08T12:16:05.212Z,23.60
2018-04-08T12:18:30.770Z,23.86
2018-04-08T12:20:56.364Z,23.77
2018-04-08T12:23:22.056Z,23.81
2018-04-08T12:25:47.600Z,23.88
2018-04-08T12:28:13.158Z,24.07
2018-04-08T12:30:38.945Z,24.29
2018-04-08T12:33:04.504Z,24.15
2018-04-08T12:35:30.377Z,24.03
2018-04-08T12:37:56.339Z,24.09
2018-04-08T12:40:21.889Z,24.28
2018-04-08T12:42:47.434Z,24.16
2018-04-08T12:45:13.272Z,24.39
2018-04-08T12:47:38.817Z,24.22
2018-04-08T12:50:04.397Z,24.42
2018-04-08T12:52:30.133Z,24.53
2018-04-08T12:54:55.765Z,24.69
2018-04-08T12:57:21.347Z,24.74
2018-04-08T12:59:47.282Z,24.83
2018-04-08T13:02:12.910Z,24.84
2018-04-08T13:04:38.464Z,24.89
2018-04-08T13:07:04.204Z,24.85
2018-04-08T13:09:29.788Z,24.74
2018-04-08T13:11:55.369Z,24.75
2018-04-08T13:14:21.076Z,24.94
2018-04-08T13:16:46.646Z,24.88
2018-04-08T13:19:12.279Z,24.97
2018-04-08T13:21:38.060Z,25.32
2018-04-08T13:24:03.661Z,25.09
2018-04-08T13:26:29.239Z,25.09
2018-04-08T13:28:55.106Z,25.29
2018-04-08T13:31:20.649Z,25.24
2018-04-08T13:33:46.209Z,25.25
2018-04-08T13:36:12.122Z,25.48
2018-04-08T13:38:37.981Z,25.55
2018-04-08T13:41:03.798Z,25.88
2018-04-08T13:43:29.504Z,25.77
2018-04-08T13:45:55.056Z,25.70
2018-04-08T13:48:20.617Z,25.59
2018-04-08T13:50:46.392Z,25.66
2018-04-08T13:53:11.927Z,25.69
2018-04-08T13:55:37.503Z,25.78
2018-04-08T13:58:03.270Z,25.68
2018-04-08T14:00:28.814Z,25.68
2018-04-08T14:02:54.363Z,25.46
2018-04-08T14:05:20.251Z,25.75
2018-04-08T14:07:45.839Z,25.83
2018-04-08T14:10:11.391Z,25.81
2018-04-08T14:12:37.267Z,26.10
2018-04-08T14:15:02.801Z,26.27
2018-04-08T14:17:28.347Z,26.12
2018-04-08T14:19:54.116Z,25.87
2018-04-08T14:22:19.647Z,26.08
2018-04-08T14:24:45.381Z,26.26
2018-04-08T14:27:11.077Z,26.35
2018-04-08T14:29:36.691Z,26.19
2018-04-08T14:32:02.235Z,26.16
2018-04-08T14:34:28.076Z,26.15
2018-04-08T14:36:53.638Z,26.18
2018-04-08T14:39:19.194Z,26.45
2018-04-08T14:41:45.203Z,26.47
2018-04-08T14:44:11.135Z,26.46
2018-04-08T14:46:36.742Z,26.30
2018-04-08T14:49:02.435Z,26.28
2018-04-08T14:51:27.980Z,26.28
2018-04-08T14:53:53.529Z,26.39
2018-04-08T14:56:19.282Z,26.17
2018-04-08T14:58:44.843Z,26.35
2018-04-08T15:01:10.511Z,26.35
2018-04-08T15:03:36.379Z,26.07
2018-04-08T15:06:01.951Z,25.96
2018-04-08T15:08:27.516Z,26.03
2018-04-08T15:10:53.291Z,26.05
2018-04-08T15:13:18.969Z,26.16
2018-04-08T15:15:44.535Z,26.16
2018-04-08T15:18:10.262Z,26.02
2018-04-08T15:20:35.819Z,26.05
2018-04-08T15:23:01.422Z,26.02
2018-04-08T15:25:27.302Z,25.97
2018-04-08T15:27:52.861Z,25.94
2018-04-08T15:30:18.472Z,25.96
2018-04-08T15:32:44.290Z,26.30
2018-04-08T15:35:09.844Z,26.10
2018-04-08T15:37:35.402Z,25.62
2018-04-08T15:40:01.204Z,25.75
2018-04-08T15:42:27.223Z,25.90
2018-04-08T15:44:53.107Z,25.47
2018-04-08T15:47:19.011Z,25.45
2018-04-08T15:49:44.567Z,25.50
2018-04-08T15:52:10.126Z,25.35
2018-04-08T15:54:35.912Z,25.18
2018-04-08T15:57:01.509Z,25.17
2018-04-08T15:59:27.053Z,25.07
2018-04-08T16:01:52.944Z,25.31
2018-04-08T16:04:18.515Z,25.40
2018-04-08T16:06:44.067Z,25.14
2018-04-08T16:09:09.955Z,25.13
2018-04-08T16:11:35.542Z,24.99
2018-04-08T16:14:01.151Z,24.83
2018-04-08T16:16:26.945Z,24.88
2018-04-08T16:18:52.551Z,24.86
2018-04-08T16:21:18.172Z,24.90
2018-04-08T16:23:43.888Z,24.82
2018-04-08T16:26:09.430Z,24.88
2018-04-08T16:28:34.980Z,24.70
2018-04-08T16:31:00.794Z,24.55
2018-04-08T16:33:26.390Z,24.57
2018-04-08T16:35:52.007Z,24.56
2018-04-08T16:38:17.871Z,24.77
2018-04-08T16:40:43.402Z,24.64
2018-04-08T16:43:08.984Z,24.52
2018-04-08T16:45:35.066Z,24.45
2018-04-08T16:48:00.857Z,24.34
2018-04-08T16:50:26.386Z,24.32
2018-04-08T16:52:52.266Z,24.41
2018-04-08T16:55:17.802Z,24.33
2018-04-08T16:57:43.346Z,24.19
2018-04-08T17:00:09.180Z,24.22
2018-04-08T17:02:34.771Z,24.14
2018-04-08T17:05:00.380Z,24.12
2018-04-08T17:07:26.222Z,23.92
2018-04-08T17:09:51.789Z,24.09
2018-04-08T17:12:17.340Z,23.89
2018-04-08T17:14:43.089Z,23.93
2018-04-08T17:17:08.631Z,24.06
2018-04-08T17:19:34.235Z,23.79
2018-04-08T17:21:59.925Z,23.73
2018-04-08T17:24:25.491Z,23.49
2018-04-08T17:26:51.069Z,23.48
2018-04-08T17:29:16.863Z,23.64
2018-04-08T17:31:42.422Z,23.64
2018-04-08T17:34:08.032Z,23.36
2018-04-08T17:36:33.833Z,23.29
2018-04-08T17:38:59.437Z,23.33
2018-04-08T17:41:24.973Z,23.27
2018-04-08T17:43:50.926Z,23.47
2018-04-08T17:46:16.482Z,23.14
2018-04-08T17:48:42.412Z,23.09
2018-04-08T17:51:08.334Z,23.08
2018-04-08T17:53:33.888Z,22.94
2018-04-08T17:55:59.441Z,22.91
2018-04-08T17:58:25.192Z,22.74
2018-04-08T18:00:50.760Z,22.64
2018-04-08T18:03:16.389Z,22.60
2018-04-08T18:05:42.156Z,22.55
2018-04-08T18:08:07.766Z,22.39
2018-04-08T18:10:33.325Z,22.28
2018-04-08T18:12:59.029Z,22.29
2018-04-08T18:15:24.576Z,22.20
2018-04-08T18:17:50.935Z,22.19
2018-04-08T18:20:18.534Z,22.15
2018-04-08T18:22:44.452Z,22.28
2018-04-08T18:25:10.204Z,22.22
2018-04-08T18:32:39.525Z,21.74
2018-04-08T18:35:05.135Z,21.67
2018-04-08T18:37:30.852Z,21.66
2018-04-08T18:39:56.405Z,21.77
2018-04-08T18:42:22.113Z,21.75
2018-04-08T18:44:47.656Z,21.49
2018-04-08T18:47:13.680Z,21.36
2018-04-08T18:49:39.537Z,21.32
2018-04-08T18:52:05.419Z,21.50
2018-04-08T18:54:30.971Z,21.45
2018-04-08T18:56:56.513Z,21.78
2018-04-08T18:59:23.028Z,21.26
2018-04-08T19:01:48.591Z,21.28
2018-04-08T19:04:14.893Z,21.36
2018-04-08T19:06:40.479Z,21.18
2018-04-08T19:09:06.682Z,21.27
2018-04-08T19:11:32.394Z,21.23
2018-04-08T19:13:58.541Z,21.32
2018-04-08T19:16:24.344Z,21.28
2018-04-08T19:18:50.580Z,21.12
2018-04-08T19:21:16.204Z,20.98
2018-04-08T19:23:41.959Z,20.79
2018-04-08T19:26:07.643Z,20.74
2018-04-08T19:28:33.502Z,20.67
2018-04-08T19:30:59.073Z,20.86
2018-04-08T19:33:24.860Z,20.71
2018-04-08T19:35:50.438Z,20.58
2018-04-08T19:38:16.338Z,20.81
2018-04-08T19:40:41.896Z,20.64
2018-04-08T19:43:07.681Z,20.46
2018-04-08T19:45:33.226Z,20.63
2018-04-08T19:47:59.168Z,20.38
2018-04-08T19:50:24.730Z,20.19
2018-04-08T19:52:50.817Z,20.18
2018-04-08T19:55:16.363Z,20.34
2018-04-08T19:57:42.914Z,20.23
2018-04-08T20:00:08.630Z,20.22
2018-04-08T20:02:35.333Z,20.04
2018-04-08T20:05:00.941Z,19.98
2018-04-08T20:07:26.605Z,20.04
2018-04-08T20:09:52.162Z,19.86
2018-04-08T20:12:17.902Z,19.77
2018-04-08T20:14:43.451Z,20.06
2018-04-08T20:17:09.209Z,19.76
2018-04-08T20:19:34.775Z,19.93
2018-04-08T20:22:00.615Z,19.69
2018-04-08T20:24:26.162Z,19.72
2018-04-08T20:26:51.848Z,19.46
2018-04-08T20:29:17.451Z,19.60
2018-04-08T20:31:43.173Z,19.48
2018-04-08T20:34:08.727Z,19.53
2018-04-08T20:36:34.528Z,19.41
2018-04-08T20:39:00.079Z,19.51
2018-04-08T20:41:25.853Z,19.33
2018-04-08T20:43:51.740Z,19.20
2018-04-08T20:46:17.394Z,19.09
2018-04-08T20:48:43.165Z,19.09
2018-04-08T20:51:08.726Z,19.11
2018-04-08T20:53:35.422Z,19.05
2018-04-08T20:56:00.974Z,18.90
2018-04-08T20:58:27.083Z,18.97
2018-04-08T21:00:52.617Z,18.97
2018-04-08T21:03:18.365Z,18.95
2018-04-08T21:05:43.897Z,19.06
2018-04-08T21:08:09.673Z,19.09
2018-04-08T21:10:35.222Z,18.94
2018-04-08T21:13:01.010Z,19.11
2018-04-08T21:15:26.571Z,18.93
2018-04-08T21:17:52.335Z,19.03
2018-04-08T21:20:18.101Z,18.91
2018-04-08T21:22:43.654Z,19.12
2018-04-08T21:25:09.373Z,18.96
2018-04-08T21:27:34.977Z,18.73
2018-04-08T21:30:00.758Z,18.78
2018-04-08T21:32:26.297Z,18.70
2018-04-08T21:34:51.985Z,18.70
2018-04-08T21:37:17.564Z,18.55
2018-04-08T21:39:43.251Z,18.37
2018-04-08T21:42:08.813Z,18.32
2018-04-08T21:44:34.513Z,18.35
2018-04-08T21:47:00.112Z,18.43
2018-04-08T21:49:25.859Z,18.22
2018-04-08T21:51:51.421Z,18.13
2018-04-08T21:54:17.308Z,18.04
2018-04-08T21:56:42.842Z,18.13
2018-04-08T21:59:08.622Z,18.38
2018-04-08T22:01:34.181Z,18.23
2018-04-08T22:03:59.868Z,18.01
2018-04-08T22:06:25.654Z,18.11
2018-04-08T22:08:51.211Z,18.13
2018-04-08T22:11:17.035Z,18.22
2018-04-08T22:13:42.572Z,18.23
2018-04-08T22:16:08.118Z,18.20
2018-04-08T22:18:33.873Z,18.29
2018-04-08T22:20:59.416Z,17.97
2018-04-08T22:23:25.197Z,17.93
2018-04-08T22:25:50.678Z,17.99
2018-04-08T22:28:16.331Z,18.00
2018-04-08T22:30:41.888Z,18.25
2018-04-08T22:33:07.570Z,17.96
2018-04-08T22:35:33.127Z,18.16
2018-04-08T22:37:58.885Z,18.08
2018-04-08T22:40:24.467Z,18.00
2018-04-08T22:42:50.251Z,17.96
2018-04-08T22:45:15.800Z,18.11
2018-04-08T22:47:41.566Z,18.02
2018-04-08T22:50:07.133Z,17.92
2018-04-08T22:55:04.198Z,17.84
2018-04-08T22:57:29.944Z,17.66
2018-04-08T22:59:55.514Z,17.83
2018-04-08T23:04:53.625Z,17.56
2018-04-08T23:07:19.430Z,17.71
2018-04-08T23:09:44.978Z,17.67
2018-04-08T23:12:10.728Z,17.53
2018-04-08T23:14:36.276Z,17.55
2018-04-08T23:17:02.006Z,17.21
2018-04-08T23:19:27.606Z,17.00
2018-04-08T23:21:53.362Z,16.74
2018-04-08T23:24:18.910Z,16.56
2018-04-08T23:26:45.031Z,16.77
2018-04-08T23:29:10.575Z,16.57
2018-04-08T23:31:36.388Z,16.38
2018-04-08T23:34:01.942Z,16.78
2018-04-08T23:36:27.496Z,16.65
2018-04-08T23:38:53.256Z,16.69
2018-04-08T23:41:18.796Z,16.77
2018-04-08T23:43:44.639Z,16.63
2018-04-08T23:46:10.204Z,16.66
2018-04-08T23:48:35.865Z,16.60
2018-04-08T23:51:01.439Z,16.80
2018-04-08T23:53:27.124Z,16.91
2018-04-08T23:55:52.724Z,16.64
2018-04-08T23:58:18.429Z,16.70
